createdAt,value
2023-02-16T00:00:43.085Z,45.10
2023-02-16T00:03:21.500Z,43.90
2023-02-16T00:05:55.052Z,47.78
2023-02-16T00:08:22.031Z,44.92
2023-02-16T00:10:55.084Z,46.95
2023-02-16T00:13:27.935Z,50.25
2023-02-16T00:16:01.219Z,51.60
2023-02-16T00:18:28.315Z,59.33
2023-02-16T00:21:02.395Z,49.08
2023-02-16T00:23:29.697Z,53.53
2023-02-16T00:25:56.809Z,49.47
2023-02-16T00:28:30.093Z,51.60
2023-02-16T00:30:57.152Z,53.50
2023-02-16T00:33:31.049Z,51.55
2023-02-16T00:35:58.036Z,53.22
2023-02-16T00:38:31.035Z,49.97
2023-02-16T00:41:04.413Z,50.83
2023-02-16T00:43:38.074Z,47.90
2023-02-16T00:46:05.308Z,43.88
2023-02-16T00:48:39.065Z,45.25
2023-02-16T00:51:20.315Z,49.33
2023-02-16T00:53:58.113Z,50.13
2023-02-16T00:56:25.159Z,47.80
2023-02-16T00:58:52.250Z,47.33
2023-02-16T01:01:26.090Z,49.67
2023-02-16T01:04:00.089Z,47.90
2023-02-16T01:06:27.309Z,48.38
2023-02-16T01:08:54.424Z,43.40
2023-02-16T01:11:28.107Z,54.03
2023-02-16T01:13:56.285Z,52.72
2023-02-16T01:16:40.148Z,47.88
2023-02-16T01:19:07.235Z,45.13
2023-02-16T01:21:41.102Z,51.67
2023-02-16T01:24:08.232Z,54.88
2023-02-16T01:26:47.121Z,59.58
2023-02-16T01:29:21.421Z,52.20
2023-02-16T01:31:55.179Z,56.17
2023-02-16T01:34:22.328Z,54.92
2023-02-16T01:36:49.490Z,58.55
2023-02-16T01:39:25.075Z,47.92
2023-02-16T01:42:32.097Z,51.25
2023-02-16T01:45:09.126Z,51.78
2023-02-16T01:47:54.117Z,49.35
2023-02-16T01:50:34.111Z,48.03
2023-02-16T01:53:06.220Z,47.05
2023-02-16T01:55:46.049Z,40.35
2023-02-16T01:58:41.944Z,45.55
2023-02-16T02:01:56.265Z,45.30
2023-02-16T02:04:28.878Z,43.47
2023-02-16T02:07:02.076Z,47.47
2023-02-16T02:09:46.119Z,42.72
2023-02-16T02:12:41.130Z,43.83
2023-02-16T02:15:08.397Z,48.50
2023-02-16T02:18:38.127Z,47.40
2023-02-16T02:21:52.159Z,42.20
2023-02-16T02:24:56.106Z,41.63
2023-02-16T02:27:37.096Z,49.72
2023-02-16T02:30:38.116Z,46.60
2023-02-16T02:33:40.289Z,46.40
2023-02-16T02:36:35.099Z,46.58
2023-02-16T02:40:20.151Z,47.97
2023-02-16T02:43:14.411Z,48.72
2023-02-16T02:46:15.567Z,46.85
2023-02-16T02:48:42.502Z,51.05
2023-02-16T02:51:16.137Z,55.88
2023-02-16T02:54:10.143Z,50.20
2023-02-16T02:56:44.124Z,51.97
2023-02-16T02:59:11.111Z,55.80
2023-02-16T03:01:45.166Z,52.78
2023-02-16T03:04:12.269Z,54.22
2023-02-16T03:06:41.617Z,49.33
2023-02-16T03:09:20.130Z,58.88
2023-02-16T03:11:53.158Z,47.97
2023-02-16T03:14:32.543Z,48.80
2023-02-16T03:17:09.141Z,45.45
2023-02-16T03:19:42.172Z,42.72
2023-02-16T03:22:09.285Z,49.78
2023-02-16T03:24:36.316Z,40.55
2023-02-16T03:27:10.094Z,39.95
2023-02-16T03:29:37.160Z,43.22
2023-02-16T03:32:11.206Z,44.67
2023-02-16T03:34:38.216Z,43.45
2023-02-16T03:37:12.133Z,40.10
2023-02-16T03:39:39.178Z,37.53
2023-02-16T03:42:13.105Z,38.15
2023-02-16T03:44:46.201Z,37.85
2023-02-16T03:47:13.109Z,39.80
2023-02-16T03:49:40.161Z,46.13
2023-02-16T03:52:13.152Z,41.15
2023-02-16T03:54:40.196Z,38.47
2023-02-16T03:57:14.168Z,44.58
2023-02-16T03:59:41.044Z,40.05
2023-02-16T04:02:08.234Z,41.55
2023-02-16T04:04:42.239Z,41.17
2023-02-16T04:07:09.241Z,36.65
2023-02-16T04:09:43.185Z,34.03
2023-02-16T04:12:11.624Z,38.08
2023-02-16T04:14:38.617Z,42.30
2023-02-16T04:17:12.182Z,38.88
2023-02-16T04:19:45.888Z,37.40
2023-02-16T04:22:19.263Z,38.90
2023-02-16T04:24:46.330Z,37.95
2023-02-16T04:27:20.127Z,34.92
2023-02-16T04:29:53.222Z,34.58
2023-02-16T04:32:20.233Z,36.33
2023-02-16T04:34:54.133Z,37.53
2023-02-16T04:37:27.164Z,37.50
2023-02-16T04:40:01.213Z,37.25
2023-02-16T04:42:35.143Z,45.42
2023-02-16T04:45:02.185Z,40.10
2023-02-16T04:47:36.200Z,36.65
2023-02-16T04:50:03.547Z,39.80
2023-02-16T04:52:30.482Z,36.20
2023-02-16T04:55:04.210Z,34.33
2023-02-16T04:57:31.445Z,37.75
2023-02-16T05:00:05.221Z,35.40
2023-02-16T05:02:32.969Z,37.20
2023-02-16T05:04:59.998Z,34.78
2023-02-16T05:07:33.217Z,34.05
2023-02-16T05:10:00.256Z,33.70
2023-02-16T05:12:34.161Z,36.28
2023-02-16T05:15:01.261Z,33.28
2023-02-16T05:17:35.201Z,30.10
2023-02-16T05:20:09.147Z,32.60
2023-02-16T05:22:36.120Z,34.58
2023-02-16T05:25:10.242Z,28.60
2023-02-16T05:27:44.203Z,27.85
2023-02-16T05:30:12.457Z,28.10
2023-02-16T05:32:46.195Z,34.75
2023-02-16T05:35:20.197Z,29.20
2023-02-16T05:37:47.144Z,30.70
2023-02-16T05:40:21.173Z,26.02
2023-02-16T05:42:48.211Z,25.90
2023-02-16T05:45:22.191Z,26.08
2023-02-16T05:47:49.230Z,27.15
2023-02-16T05:50:23.198Z,26.38
2023-02-16T05:52:50.140Z,25.63
2023-02-16T05:55:24.203Z,23.65
2023-02-16T05:57:51.187Z,24.45
2023-02-16T06:00:18.476Z,21.45
2023-02-16T06:02:52.251Z,23.95
2023-02-16T06:05:19.295Z,25.98
2023-02-16T06:07:53.199Z,25.10
2023-02-16T06:10:27.205Z,23.75
2023-02-16T06:12:54.148Z,23.25
2023-02-16T06:15:21.090Z,25.40
2023-02-16T06:17:54.212Z,26.77
2023-02-16T06:20:27.194Z,24.92
2023-02-16T06:22:54.098Z,25.27
2023-02-16T06:25:27.205Z,26.38
2023-02-16T06:27:54.203Z,28.92
2023-02-16T06:30:28.293Z,29.27
2023-02-16T06:32:55.422Z,25.08
2023-02-16T06:35:22.360Z,28.05
2023-02-16T06:37:56.202Z,23.30
2023-02-16T06:40:23.305Z,31.55
2023-02-16T06:42:57.218Z,24.15
2023-02-16T06:45:31.247Z,24.92
2023-02-16T06:47:58.265Z,23.80
2023-02-16T06:50:32.240Z,22.63
2023-02-16T06:52:59.334Z,22.48
2023-02-16T06:55:33.314Z,22.25
2023-02-16T06:58:07.249Z,19.85
2023-02-16T07:00:34.555Z,22.85
2023-02-16T07:03:08.246Z,28.13
2023-02-16T07:05:42.219Z,19.42
2023-02-16T07:08:09.177Z,24.83
2023-02-16T07:10:49.713Z,21.42
2023-02-16T07:13:17.282Z,20.80
2023-02-16T07:15:51.258Z,24.98
2023-02-16T07:18:18.297Z,26.48
2023-02-16T07:20:52.226Z,23.77
2023-02-16T07:23:19.240Z,28.52
2023-02-16T07:25:46.210Z,32.08
2023-02-16T07:28:20.227Z,32.10
2023-02-16T07:30:47.243Z,30.80
2023-02-16T07:33:15.829Z,35.17
2023-02-16T07:35:50.283Z,34.45
2023-02-16T07:38:17.300Z,45.40
2023-02-16T07:40:51.208Z,50.78
2023-02-16T07:43:18.217Z,44.95
2023-02-16T07:45:45.350Z,40.15
2023-02-16T07:48:19.283Z,44.78
2023-02-16T07:50:46.244Z,42.20
2023-02-16T07:53:20.289Z,38.70
2023-02-16T07:55:54.267Z,30.80
2023-02-16T07:58:21.294Z,38.17
2023-02-16T08:00:55.326Z,31.77
2023-02-16T08:03:22.468Z,25.42
2023-02-16T08:05:56.233Z,26.67
2023-02-16T08:08:30.294Z,26.85
2023-02-16T08:11:03.529Z,25.40
2023-02-16T08:13:37.261Z,26.20
2023-02-16T08:16:11.717Z,25.95
2023-02-16T08:18:46.257Z,24.77
2023-02-16T08:21:23.320Z,28.67
2023-02-16T08:23:55.300Z,24.55
2023-02-16T08:26:30.261Z,28.65
2023-02-16T08:28:57.721Z,27.85
2023-02-16T08:31:34.387Z,29.55
2023-02-16T08:34:01.652Z,27.77
2023-02-16T08:36:41.264Z,25.90
2023-02-16T08:39:15.064Z,26.65
2023-02-16T08:41:49.255Z,25.63
2023-02-16T08:44:17.097Z,28.42
2023-02-16T08:46:51.303Z,27.90
2023-02-16T08:49:19.230Z,27.17
2023-02-16T08:51:57.269Z,30.25
2023-02-16T08:54:26.810Z,30.38
2023-02-16T08:57:00.252Z,28.83
2023-02-16T08:59:28.643Z,27.42
2023-02-16T09:01:59.395Z,27.70
2023-02-16T09:04:33.325Z,27.77
2023-02-16T09:07:07.344Z,31.60
2023-02-16T09:09:34.331Z,29.67
2023-02-16T09:12:01.342Z,30.85
2023-02-16T09:14:35.328Z,32.63
2023-02-16T09:17:02.452Z,34.30
2023-02-16T09:19:36.242Z,31.25
2023-02-16T09:22:09.337Z,33.50
2023-02-16T09:24:36.407Z,36.22
2023-02-16T09:27:10.250Z,32.25
2023-02-16T09:29:43.303Z,34.63
2023-02-16T09:32:10.364Z,31.73
2023-02-16T09:34:37.396Z,34.22
2023-02-16T09:37:11.316Z,33.38
2023-02-16T09:39:38.362Z,37.00
2023-02-16T09:42:33.343Z,36.75
2023-02-16T09:45:11.393Z,37.53
2023-02-16T09:47:50.287Z,38.65
2023-02-16T09:50:52.136Z,42.05
2023-02-16T09:53:35.280Z,45.03
2023-02-16T09:56:40.277Z,46.45
2023-02-16T09:59:29.251Z,48.88
2023-02-16T10:02:27.644Z,44.78
2023-02-16T10:05:35.345Z,44.78
2023-02-16T10:08:08.354Z,79.22
2023-02-16T10:10:49.288Z,73.68
2023-02-16T10:13:48.397Z,46.38
2023-02-16T10:16:19.547Z,44.13
2023-02-16T10:18:55.344Z,44.10
2023-02-16T10:21:27.140Z,48.72
2023-02-16T10:24:08.317Z,47.47
2023-02-16T10:26:50.333Z,47.05
2023-02-16T10:29:28.359Z,47.33
2023-02-16T10:32:15.522Z,46.67
2023-02-16T10:35:05.372Z,47.05
2023-02-16T10:37:53.335Z,47.78
2023-02-16T10:40:54.276Z,45.25
2023-02-16T10:43:54.359Z,42.30
2023-02-16T10:46:35.412Z,49.42
2023-02-16T10:49:02.495Z,43.45
2023-02-16T10:51:34.075Z,46.97
2023-02-16T10:54:20.341Z,48.33
2023-02-16T10:56:54.735Z,46.42
2023-02-16T10:59:44.480Z,50.53
2023-02-16T11:02:35.356Z,48.40
2023-02-16T11:05:02.484Z,49.15
2023-02-16T11:07:36.351Z,53.80
2023-02-16T11:10:21.572Z,54.35
2023-02-16T11:13:03.351Z,53.90
2023-02-16T11:15:30.397Z,46.33
2023-02-16T11:18:14.345Z,51.88
2023-02-16T11:20:51.364Z,48.75
2023-02-16T11:23:27.352Z,49.65
2023-02-16T11:25:56.058Z,50.75
2023-02-16T11:28:52.422Z,43.30
2023-02-16T11:31:38.528Z,48.53
2023-02-16T11:34:34.198Z,53.63
2023-02-16T11:37:33.401Z,42.78
2023-02-16T11:40:13.366Z,46.38
2023-02-16T11:42:45.024Z,51.50
2023-02-16T11:45:39.458Z,49.45
2023-02-16T11:48:14.204Z,54.78
2023-02-16T11:51:11.434Z,44.15
2023-02-16T11:53:39.912Z,42.42
2023-02-16T11:56:28.373Z,44.20
2023-02-16T11:59:19.336Z,41.15
2023-02-16T12:02:13.459Z,43.75
2023-02-16T12:05:08.028Z,42.97
2023-02-16T12:08:15.383Z,45.28
2023-02-16T12:11:18.437Z,39.13
2023-02-16T12:13:55.456Z,45.53
2023-02-16T12:16:53.401Z,44.75
2023-02-16T12:19:53.408Z,44.63
2023-02-16T12:22:34.877Z,51.40
2023-02-16T12:25:28.442Z,42.83
2023-02-16T12:28:18.628Z,46.83
2023-02-16T12:31:31.433Z,45.15
2023-02-16T12:34:18.843Z,40.03
2023-02-16T12:36:57.410Z,44.17
2023-02-16T12:39:33.576Z,45.20
2023-02-16T12:42:49.381Z,46.75
2023-02-16T12:45:22.773Z,46.03
2023-02-16T12:49:01.469Z,49.40
2023-02-16T12:51:44.416Z,44.92
2023-02-16T12:54:36.496Z,50.13
2023-02-16T12:57:17.410Z,45.55
2023-02-16T13:00:05.409Z,45.55
2023-02-16T13:02:48.466Z,45.92
2023-02-16T13:05:22.344Z,48.13
2023-02-16T13:08:03.406Z,51.63
2023-02-16T13:11:06.700Z,55.28
2023-02-16T13:13:34.584Z,53.70
2023-02-16T13:16:29.061Z,50.13
2023-02-16T13:19:02.401Z,52.13
2023-02-16T13:22:25.625Z,56.17
2023-02-16T13:25:04.458Z,56.83
2023-02-16T13:28:49.321Z,54.30
2023-02-16T13:31:53.574Z,64.10
2023-02-16T13:34:45.823Z,55.33
2023-02-16T13:37:31.450Z,52.95
2023-02-16T13:40:29.443Z,57.53
2023-02-16T13:43:08.439Z,56.28
2023-02-16T13:45:46.439Z,59.10
2023-02-16T13:48:58.444Z,61.25
2023-02-16T13:51:26.946Z,60.90
2023-02-16T13:54:05.414Z,60.35
2023-02-16T13:56:43.854Z,59.63
2023-02-16T13:59:16.774Z,60.55
2023-02-16T14:01:51.450Z,55.22
2023-02-16T14:04:24.371Z,53.20
2023-02-16T14:07:10.424Z,56.10
2023-02-16T14:09:46.013Z,56.00
2023-02-16T14:12:32.414Z,56.30
2023-02-16T14:15:13.478Z,57.67
2023-02-16T14:17:40.397Z,57.08
2023-02-16T14:20:20.438Z,60.78
2023-02-16T14:22:56.428Z,55.58
2023-02-16T14:25:29.484Z,57.38
2023-02-16T14:28:21.880Z,53.60
2023-02-16T14:31:03.755Z,62.72
2023-02-16T14:33:42.953Z,49.83
2023-02-16T14:36:22.478Z,55.80
2023-02-16T14:38:56.468Z,58.50
2023-02-16T14:41:23.317Z,56.97
2023-02-16T14:43:58.492Z,53.97
2023-02-16T14:46:58.238Z,54.15
2023-02-16T14:49:37.500Z,54.35
2023-02-16T14:52:51.210Z,57.42
2023-02-16T14:55:58.506Z,55.75
2023-02-16T14:58:41.465Z,52.47
2023-02-16T15:01:20.536Z,53.92
2023-02-16T15:03:55.439Z,52.00
2023-02-16T15:06:40.524Z,45.40
2023-02-16T15:09:33.927Z,56.40
2023-02-16T15:12:12.506Z,51.10
2023-02-16T15:14:50.957Z,55.38
2023-02-16T15:17:52.581Z,60.35
2023-02-16T15:20:38.517Z,58.05
2023-02-16T15:23:22.540Z,54.22
2023-02-16T15:26:07.626Z,54.33
2023-02-16T15:28:45.526Z,49.75
2023-02-16T15:31:16.738Z,50.25
2023-02-16T15:34:00.519Z,58.05
2023-02-16T15:36:35.318Z,54.78
2023-02-16T15:39:23.046Z,56.72
2023-02-16T15:41:50.201Z,54.28
2023-02-16T15:44:41.484Z,59.65
2023-02-16T15:47:14.653Z,59.72
2023-02-16T15:49:48.480Z,54.50
2023-02-16T15:52:25.545Z,51.40
2023-02-16T15:54:52.495Z,53.83
2023-02-16T15:57:38.589Z,53.72
2023-02-16T16:00:20.377Z,56.30
2023-02-16T16:03:02.559Z,53.00
2023-02-16T16:05:31.635Z,54.25
2023-02-16T16:08:05.558Z,57.63
2023-02-16T16:10:36.627Z,55.92
2023-02-16T16:13:13.532Z,59.25
2023-02-16T16:15:45.362Z,53.75
2023-02-16T16:18:54.545Z,58.55
2023-02-16T16:21:33.544Z,64.00
2023-02-16T16:24:07.591Z,61.95
2023-02-16T16:27:00.559Z,60.35
2023-02-16T16:29:44.210Z,74.22
2023-02-16T16:32:31.783Z,82.28
2023-02-16T16:34:59.484Z,79.78
2023-02-16T16:37:39.544Z,77.07
2023-02-16T16:40:30.499Z,75.43
2023-02-16T16:43:09.563Z,72.63
2023-02-16T16:45:53.601Z,65.80
2023-02-16T16:48:40.621Z,67.88
2023-02-16T16:51:24.619Z,75.60
2023-02-16T16:54:10.545Z,87.80
2023-02-16T16:56:50.582Z,91.90
2023-02-16T16:59:23.579Z,110.85
2023-02-16T17:01:50.644Z,111.30
2023-02-16T17:04:24.625Z,110.13
2023-02-16T17:06:51.666Z,87.97
2023-02-16T17:09:25.566Z,98.10
2023-02-16T17:11:52.533Z,78.70
2023-02-16T17:14:28.512Z,68.88
2023-02-16T17:16:55.598Z,94.82
2023-02-16T17:19:29.538Z,84.93
2023-02-16T17:22:02.590Z,86.82
2023-02-16T17:24:29.616Z,84.40
2023-02-16T17:27:03.813Z,86.90
2023-02-16T17:29:31.318Z,75.20
2023-02-16T17:32:07.973Z,79.10
2023-02-16T17:34:35.182Z,72.05
2023-02-16T17:37:11.620Z,71.00
2023-02-16T17:39:45.582Z,70.78
2023-02-16T17:42:12.687Z,69.53
2023-02-16T17:44:39.630Z,70.28
2023-02-16T17:47:12.601Z,70.05
2023-02-16T17:49:39.596Z,64.43
2023-02-16T17:52:19.552Z,69.40
2023-02-16T17:54:46.570Z,67.10
2023-02-16T17:57:19.578Z,61.35
2023-02-16T17:59:46.580Z,60.20
2023-02-16T18:02:19.627Z,61.08
2023-02-16T18:04:46.646Z,64.95
2023-02-16T18:07:21.659Z,74.28
2023-02-16T18:09:49.031Z,83.03
2023-02-16T18:12:22.603Z,65.65
2023-02-16T18:14:49.752Z,78.47
2023-02-16T18:17:23.663Z,82.45
2023-02-16T18:19:50.727Z,67.25
2023-02-16T18:22:24.674Z,64.72
2023-02-16T18:24:58.565Z,61.45
2023-02-16T18:27:25.471Z,58.17
2023-02-16T18:29:58.668Z,55.20
2023-02-16T18:32:25.813Z,56.58
2023-02-16T18:34:59.649Z,55.08
2023-02-16T18:37:33.664Z,57.35
2023-02-16T18:40:07.632Z,61.53
2023-02-16T18:42:35.718Z,67.25
2023-02-16T18:45:09.702Z,62.90
2023-02-16T18:47:36.662Z,70.90
2023-02-16T18:50:11.664Z,77.15
2023-02-16T18:52:39.347Z,69.65
2023-02-16T18:55:06.856Z,75.93
2023-02-16T18:57:40.702Z,78.95
2023-02-16T19:00:09.126Z,73.80
2023-02-16T19:02:42.658Z,83.10
2023-02-16T19:05:17.650Z,79.35
2023-02-16T19:07:44.694Z,79.43
2023-02-16T19:10:11.840Z,78.28
2023-02-16T19:12:45.674Z,75.88
2023-02-16T19:15:12.734Z,75.07
2023-02-16T19:17:46.650Z,67.32
2023-02-16T19:20:20.637Z,56.28
2023-02-16T19:22:48.542Z,56.92
2023-02-16T19:25:21.613Z,48.58
2023-02-16T19:27:48.733Z,55.55
2023-02-16T19:30:22.691Z,52.47
2023-02-16T19:32:49.820Z,54.05
2023-02-16T19:35:23.674Z,73.90
2023-02-16T19:37:50.672Z,62.88
2023-02-16T19:40:24.732Z,64.95
2023-02-16T19:42:51.772Z,65.47
2023-02-16T19:45:25.700Z,84.85
2023-02-16T19:47:59.675Z,71.47
2023-02-16T19:50:33.692Z,69.25
2023-02-16T19:53:07.696Z,66.30
2023-02-16T19:55:34.793Z,53.72
2023-02-16T19:58:08.703Z,46.47
2023-02-16T20:00:36.898Z,36.42
2023-02-16T20:03:10.756Z,45.33
2023-02-16T20:05:37.754Z,51.95
2023-02-16T20:08:05.005Z,54.85
2023-02-16T20:10:38.608Z,55.97
2023-02-16T20:13:05.641Z,53.88
2023-02-16T20:15:38.688Z,46.00
2023-02-16T20:18:05.736Z,46.63
2023-02-16T20:20:38.741Z,48.65
2023-02-16T20:23:12.654Z,47.17
2023-02-16T20:25:40.313Z,41.00
2023-02-16T20:28:13.731Z,38.67
2023-02-16T20:30:42.205Z,39.22
2023-02-16T20:33:15.721Z,36.10
2023-02-16T20:35:42.820Z,37.42
2023-02-16T20:38:16.790Z,37.83
2023-02-16T20:40:44.458Z,36.95
2023-02-16T20:43:17.828Z,37.03
2023-02-16T20:45:44.884Z,52.75
2023-02-16T20:48:18.708Z,66.57
2023-02-16T20:50:45.790Z,61.50
2023-02-16T20:53:19.766Z,74.32
2023-02-16T20:55:46.964Z,68.90
2023-02-16T20:58:20.688Z,62.05
2023-02-16T21:00:53.740Z,64.97
2023-02-16T21:03:20.770Z,56.70
2023-02-16T21:05:51.184Z,54.15
2023-02-16T21:08:24.982Z,53.10
2023-02-16T21:10:56.586Z,62.25
2023-02-16T21:13:29.790Z,56.40
2023-02-16T21:15:56.838Z,58.17
2023-02-16T21:18:30.718Z,50.88
2023-02-16T21:21:00.135Z,44.63
2023-02-16T21:23:33.754Z,42.03
2023-02-16T21:26:09.743Z,39.50
2023-02-16T21:28:43.738Z,39.85
2023-02-16T21:31:14.090Z,35.47
2023-02-16T21:33:47.724Z,36.30
2023-02-16T21:36:23.692Z,32.53
2023-02-16T21:38:50.738Z,31.27
2023-02-16T21:41:31.318Z,39.78
2023-02-16T21:44:14.896Z,41.63
2023-02-16T21:46:49.754Z,43.78
2023-02-16T21:49:19.254Z,45.03
2023-02-16T21:51:53.789Z,36.42
2023-02-16T21:54:20.722Z,36.85
2023-02-16T21:56:57.766Z,32.92
2023-02-16T21:59:24.667Z,40.42
2023-02-16T22:01:58.756Z,39.25
2023-02-16T22:04:25.733Z,39.33
2023-02-16T22:06:58.751Z,46.53
2023-02-16T22:09:25.900Z,52.08
2023-02-16T22:11:59.729Z,59.17
2023-02-16T22:14:26.704Z,59.03
2023-02-16T22:16:59.810Z,56.00
2023-02-16T22:19:26.768Z,61.38
2023-02-16T22:21:59.813Z,55.25
2023-02-16T22:24:26.817Z,65.68
2023-02-16T22:27:00.734Z,58.22
2023-02-16T22:29:33.749Z,58.15
2023-02-16T22:32:06.775Z,58.72
2023-02-16T22:34:33.812Z,62.97
2023-02-16T22:37:00.831Z,55.65
2023-02-16T22:39:34.742Z,56.80
2023-02-16T22:42:07.780Z,59.15
2023-02-16T22:44:41.759Z,60.22
2023-02-16T22:47:09.045Z,62.40
2023-02-16T22:49:42.821Z,65.65
2023-02-16T22:52:16.735Z,59.53
2023-02-16T22:54:50.919Z,45.53
2023-02-16T22:57:24.788Z,36.35
2023-02-16T22:59:51.699Z,33.45
2023-02-16T23:02:24.789Z,29.73
2023-02-16T23:04:54.963Z,28.65
2023-02-16T23:07:28.824Z,34.35
2023-02-16T23:10:01.769Z,31.17
2023-02-16T23:12:35.778Z,29.65
2023-02-16T23:15:02.738Z,30.63
2023-02-16T23:17:35.728Z,28.85
2023-02-16T23:20:09.743Z,29.10
2023-02-16T23:22:42.760Z,26.08
2023-02-16T23:25:15.773Z,28.73
2023-02-16T23:27:42.776Z,29.67
2023-02-16T23:30:16.803Z,26.15
2023-02-16T23:32:43.783Z,25.83
2023-02-16T23:35:11.912Z,31.40
2023-02-16T23:37:45.804Z,29.15
2023-02-16T23:40:13.079Z,28.73
2023-02-16T23:42:46.784Z,28.17
2023-02-16T23:45:13.743Z,28.30
2023-02-16T23:47:46.826Z,26.38
2023-02-16T23:50:13.784Z,28.88
2023-02-16T23:52:47.850Z,27.98
2023-02-16T23:55:14.894Z,27.67
2023-02-16T23:57:48.735Z,27.42
